Terminal Aerodrome Forecast
Issued by NWS Shreveport, LA

Home | Current Version | Previous Version | Text Only | Print | Product List | Glossary On
Versions: 1 2 3 4 5 6 7 8 9 10 11 12
000
FTUS44 KSHV 051135
TAFSHV
TAF
KSHV 051135Z 0512/0612 VRB03KT P6SM SCT110
     FM051500 VRB04KT P6SM SCT030 SCT110
     FM051800 18005KT P6SM SCT045
     FM060200 VRB03KT P6SM FEW070 SCT250
     FM060600 VRB03KT P6SM SCT250=

USA.gov is the U.S. government's official web portal to all federal, state and local government web resources and services.